createdAt,value
2022-09-24T00:02:54.495Z,101505.45
2022-09-24T00:06:07.501Z,101506.54
2022-09-24T00:09:35.776Z,101504.21
2022-09-24T00:12:38.841Z,101507.65
2022-09-24T00:15:45.645Z,101501.86
2022-09-24T00:18:50.877Z,101504.90
2022-09-24T00:22:23.525Z,101506.82
2022-09-24T00:25:48.953Z,101504.48
2022-09-24T00:29:05.881Z,101508.52
2022-09-24T00:32:33.457Z,101506.58
2022-09-24T00:35:50.626Z,101506.64
2022-09-24T00:39:17.840Z,101506.30
2022-09-24T00:42:44.891Z,101510.17
2022-09-24T00:45:54.737Z,101508.54
2022-09-24T00:49:21.850Z,101508.17
2022-09-24T00:52:49.860Z,101508.51
2022-09-24T00:56:00.662Z,101512.36
2022-09-24T00:59:17.198Z,101510.16
2022-09-24T01:02:44.517Z,101508.13
2022-09-24T01:06:12.499Z,101508.57
2022-09-24T01:09:19.873Z,101512.77
2022-09-24T01:12:31.156Z,101514.39
2022-09-24T01:15:48.911Z,101512.44
2022-09-24T01:19:24.815Z,101513.15
2022-09-24T01:22:51.853Z,101514.67
2022-09-24T01:25:53.312Z,101517.30
2022-09-24T01:29:24.777Z,101514.91
2022-09-24T01:32:57.996Z,101516.77
2022-09-24T01:36:42.568Z,101521.59
2022-09-24T01:39:43.603Z,101524.14
2022-09-24T01:42:54.522Z,101521.77
2022-09-24T01:45:53.317Z,101524.42
2022-09-24T01:49:23.460Z,101520.99
2022-09-24T01:52:49.848Z,101525.29
2022-09-24T01:55:58.969Z,101523.48
2022-09-24T01:59:18.183Z,101524.56
2022-09-24T02:02:49.971Z,101532.83
2022-09-24T02:06:16.922Z,101533.81
2022-09-24T02:09:34.909Z,101538.85
2022-09-24T02:13:04.574Z,101538.00
2022-09-24T02:16:33.633Z,101540.44
2022-09-24T02:19:33.149Z,101542.69
2022-09-24T02:22:54.097Z,101548.14
2022-09-24T02:26:13.869Z,101551.58
2022-09-24T02:29:41.162Z,101554.66
2022-09-24T02:32:32.019Z,101553.79
2022-09-24T02:36:01.663Z,101557.21
2022-09-24T02:39:29.621Z,101561.45
2022-09-24T02:42:17.420Z,101562.15
2022-09-24T02:45:38.985Z,101570.58
2022-09-24T02:48:28.415Z,101571.41
2022-09-24T02:51:35.850Z,101569.89
2022-09-24T02:54:44.001Z,101576.89
2022-09-24T02:58:13.239Z,101580.67
2022-09-24T03:01:19.579Z,101582.16
2022-09-24T03:04:16.047Z,101583.39
2022-09-24T03:07:15.928Z,101585.22
2022-09-24T03:10:44.069Z,101586.98
2022-09-24T03:14:11.303Z,101585.42
2022-09-24T03:17:40.839Z,101589.11
2022-09-24T03:21:00.722Z,101591.42
2022-09-24T03:24:27.381Z,101592.00
2022-09-24T03:27:34.350Z,101595.23
2022-09-24T03:30:59.644Z,101598.23
2022-09-24T03:34:03.993Z,101601.15
2022-09-24T03:37:33.702Z,101599.23
2022-09-24T03:40:43.609Z,101602.24
2022-09-24T03:44:10.668Z,101601.36
2022-09-24T03:47:37.878Z,101606.55
2022-09-24T03:51:04.823Z,101608.51
2022-09-24T03:54:32.052Z,101609.43
2022-09-24T03:57:59.438Z,101617.96
2022-09-24T04:00:57.931Z,101619.54
2022-09-24T04:04:07.655Z,101625.25
2022-09-24T04:06:54.317Z,101626.45
2022-09-24T04:09:43.287Z,101628.96
2022-09-24T04:12:48.231Z,101629.55
2022-09-24T04:15:56.018Z,101635.01
2022-09-24T04:19:02.988Z,101637.20
2022-09-24T04:22:24.423Z,101637.55
2022-09-24T04:25:41.257Z,101644.59
2022-09-24T04:29:07.961Z,101644.23
2022-09-24T04:31:37.329Z,101646.97
2022-09-24T04:34:47.019Z,101647.61
2022-09-24T04:38:14.714Z,101651.19
2022-09-24T04:41:41.086Z,101652.17
2022-09-24T04:44:55.898Z,101650.52
2022-09-24T04:48:23.876Z,101649.28
2022-09-24T04:51:49.447Z,101652.70
2022-09-24T04:55:16.118Z,101653.73
2022-09-24T04:58:43.077Z,101658.36
2022-09-24T05:02:10.031Z,101662.74
2022-09-24T05:05:36.671Z,101667.98
2022-09-24T05:09:12.436Z,101668.48
2022-09-24T05:12:40.101Z,101665.09
2022-09-24T05:16:07.503Z,101661.58
2022-09-24T05:19:34.640Z,101660.33
2022-09-24T05:23:01.484Z,101662.23
2022-09-24T05:26:32.014Z,101667.09
2022-09-24T05:29:59.884Z,101670.74
2022-09-24T05:33:18.991Z,101670.11
2022-09-24T05:36:45.712Z,101673.69
2022-09-24T05:39:55.442Z,101679.10
2022-09-24T05:43:14.222Z,101681.34
2022-09-24T05:46:36.223Z,101683.70
2022-09-24T05:50:02.900Z,101686.08
2022-09-24T05:53:29.643Z,101685.27
2022-09-24T05:55:56.069Z,101686.63
2022-09-24T05:59:23.534Z,101684.64
2022-09-24T06:02:49.994Z,101685.34
2022-09-24T06:06:05.676Z,101684.98
2022-09-24T06:09:32.708Z,101687.20
2022-09-24T06:13:00.547Z,101690.92
2022-09-24T06:16:26.306Z,101693.42
2022-09-24T06:19:24.762Z,101691.35
2022-09-24T06:22:52.500Z,101690.80
2022-09-24T06:26:09.954Z,101697.90
2022-09-24T06:29:40.405Z,101698.27
2022-09-24T06:33:07.195Z,101696.48
2022-09-24T06:36:25.003Z,101691.44
2022-09-24T06:39:54.817Z,101687.19
2022-09-24T06:43:11.577Z,101686.60
2022-09-24T06:46:38.598Z,101687.27
2022-09-24T06:50:06.283Z,101688.09
2022-09-24T06:53:25.862Z,101688.27
2022-09-24T06:56:44.935Z,101684.89
2022-09-24T07:00:02.795Z,101684.13
2022-09-24T07:03:29.780Z,101687.24
2022-09-24T07:06:55.383Z,101689.55
2022-09-24T07:10:22.061Z,101691.07
2022-09-24T07:13:16.578Z,101691.71
2022-09-24T07:16:06.825Z,101692.81
2022-09-24T07:19:34.718Z,101696.15
2022-09-24T07:23:03.061Z,101691.98
2022-09-24T07:26:29.842Z,101693.60
2022-09-24T07:28:56.620Z,101693.87
2022-09-24T07:32:27.555Z,101689.52
2022-09-24T07:35:56.954Z,101688.22
2022-09-24T07:39:18.055Z,101695.86
2022-09-24T07:42:35.185Z,101701.20
2022-09-24T07:46:02.745Z,101698.10
2022-09-24T07:49:30.748Z,101693.34
2022-09-24T07:52:43.650Z,101694.70
2022-09-24T07:55:53.741Z,101692.33
2022-09-24T07:59:20.879Z,101692.30
2022-09-24T08:02:47.574Z,101697.31
2022-09-24T08:06:14.382Z,101693.68
2022-09-24T08:09:41.133Z,101693.89
2022-09-24T08:13:08.132Z,101691.14
2022-09-24T08:16:40.707Z,101697.09
2022-09-24T08:20:00.538Z,101695.10
2022-09-24T08:23:27.178Z,101691.14
2022-09-24T08:26:46.947Z,101688.98
2022-09-24T08:30:04.267Z,101691.69
2022-09-24T08:33:21.087Z,101699.08
2022-09-24T08:36:34.257Z,101703.13
2022-09-24T08:40:01.449Z,101704.02
2022-09-24T08:43:42.657Z,101707.19
2022-09-24T08:47:11.074Z,101704.82
2022-09-24T08:50:37.714Z,101703.23
2022-09-24T08:54:11.578Z,101703.69
2022-09-24T08:57:39.510Z,101712.55
2022-09-24T09:01:06.249Z,101712.42
2022-09-24T09:05:02.464Z,101713.77
2022-09-24T09:08:54.635Z,101717.06
2022-09-24T09:12:17.596Z,101718.89
2022-09-24T09:15:41.187Z,101724.44
2022-09-24T09:19:06.339Z,101728.18
2022-09-24T09:22:42.429Z,101720.75
2022-09-24T09:26:18.155Z,101724.71
2022-09-24T09:29:35.728Z,101733.25
2022-09-24T09:32:50.657Z,101730.02
2022-09-24T09:36:10.665Z,101732.81
2022-09-24T09:39:24.946Z,101729.98
2022-09-24T09:42:44.946Z,101733.85
2022-09-24T09:46:12.332Z,101737.42
2022-09-24T09:49:43.083Z,101734.56
2022-09-24T09:53:13.032Z,101738.63
2022-09-24T09:56:38.228Z,101740.77
2022-09-24T10:00:13.996Z,101742.92
2022-09-24T10:03:21.440Z,101746.09
2022-09-24T10:07:04.115Z,101743.25
2022-09-24T10:10:14.423Z,101741.98
2022-09-24T10:13:51.072Z,101743.46
2022-09-24T10:17:08.284Z,101744.78
2022-09-24T10:20:35.134Z,101746.61
2022-09-24T10:24:05.212Z,101744.26
2022-09-24T10:27:21.792Z,101747.48
2022-09-24T10:30:30.332Z,101746.77
2022-09-24T10:34:00.326Z,101744.35
2022-09-24T10:37:20.525Z,101747.91
2022-09-24T10:40:54.676Z,101749.09
2022-09-24T10:44:22.732Z,101753.92
2022-09-24T10:47:47.827Z,101749.77
2022-09-24T10:51:19.205Z,101749.40
2022-09-24T10:54:42.971Z,101751.52
2022-09-24T10:57:53.510Z,101756.46
2022-09-24T11:01:23.892Z,101757.67
2022-09-24T11:05:00.004Z,101754.52
2022-09-24T11:08:18.151Z,101753.30
2022-09-24T11:11:44.981Z,101754.88
2022-09-24T11:15:02.153Z,101750.80
2022-09-24T11:18:27.378Z,101747.65
2022-09-24T11:22:00.321Z,101746.80
2022-09-24T11:25:18.103Z,101743.20
2022-09-24T11:28:57.434Z,101743.42
2022-09-24T11:32:40.361Z,101741.59
2022-09-24T11:36:16.533Z,101742.56
2022-09-24T11:40:00.037Z,101739.80
2022-09-24T11:43:15.097Z,101736.67
2022-09-24T11:46:15.471Z,101732.38
2022-09-24T11:49:09.459Z,101724.91
2022-09-24T11:52:22.584Z,101725.88
2022-09-24T11:55:22.889Z,101730.38
2022-09-24T11:58:55.915Z,101725.10
2022-09-24T12:02:23.338Z,101726.98
2022-09-24T12:06:10.933Z,101726.39
2022-09-24T12:09:17.699Z,101730.64
2022-09-24T12:12:50.873Z,101733.45
2022-09-24T12:16:17.340Z,101726.23
2022-09-24T12:19:34.730Z,101724.02
2022-09-24T12:23:02.158Z,101728.28
2022-09-24T12:26:22.163Z,101731.58
2022-09-24T12:29:56.489Z,101731.02
2022-09-24T12:33:25.486Z,101737.86
2022-09-24T12:36:57.380Z,101737.92
2022-09-24T12:39:58.718Z,101742.25
2022-09-24T12:42:59.584Z,101743.67
2022-09-24T12:46:27.293Z,101742.83
2022-09-24T12:49:59.660Z,101743.48
2022-09-24T12:53:29.139Z,101743.08
2022-09-24T12:56:49.469Z,101745.95
2022-09-24T13:00:27.430Z,101743.02
2022-09-24T13:03:44.586Z,101752.34
2022-09-24T13:07:27.063Z,101753.94
2022-09-24T13:10:57.211Z,101754.85
2022-09-24T13:14:29.567Z,101759.91
2022-09-24T13:17:56.017Z,101766.77
2022-09-24T13:21:08.936Z,101765.67
2022-09-24T13:24:05.223Z,101759.00
2022-09-24T13:27:32.239Z,101760.27
2022-09-24T13:31:17.881Z,101763.73
2022-09-24T13:34:48.225Z,101768.15
2022-09-24T13:38:08.029Z,101772.23
2022-09-24T13:41:30.211Z,101777.77
2022-09-24T13:44:29.900Z,101779.89
2022-09-24T13:47:25.808Z,101777.09
2022-09-24T13:50:27.606Z,101777.98
2022-09-24T13:54:09.381Z,101780.27
2022-09-24T13:57:16.176Z,101782.09
2022-09-24T14:00:19.932Z,101783.77
2022-09-24T14:03:48.879Z,101788.77
2022-09-24T14:07:18.060Z,101785.80
2022-09-24T14:10:49.325Z,101791.74
2022-09-24T14:14:16.674Z,101799.86
2022-09-24T14:16:59.908Z,101797.27
2022-09-24T14:19:50.430Z,101804.05
2022-09-24T14:23:02.422Z,101811.30
2022-09-24T14:26:31.852Z,101815.99
2022-09-24T14:29:47.009Z,101816.77
2022-09-24T14:32:45.058Z,101821.28
2022-09-24T14:35:53.069Z,101818.55
2022-09-24T14:39:24.124Z,101822.16
2022-09-24T14:42:49.396Z,101822.34
2022-09-24T14:46:00.308Z,101827.95
2022-09-24T14:49:40.880Z,101831.58
2022-09-24T14:53:33.097Z,101831.98
2022-09-24T14:57:00.733Z,101839.93
2022-09-24T15:03:14.996Z,101836.95
2022-09-24T15:06:34.467Z,101839.34
2022-09-24T15:10:11.014Z,101841.81
2022-09-24T15:13:04.377Z,101851.69
2022-09-24T15:16:21.311Z,101851.73
2022-09-24T15:19:55.250Z,101855.06
2022-09-24T15:22:32.703Z,101856.61
2022-09-24T15:25:31.815Z,101862.20
2022-09-24T15:28:39.830Z,101863.26
2022-09-24T15:31:40.401Z,101868.92
2022-09-24T15:34:58.577Z,101866.80
2022-09-24T15:37:46.278Z,101868.48
2022-09-24T15:41:02.015Z,101868.64
2022-09-24T15:44:33.911Z,101868.49
2022-09-24T15:47:17.448Z,101869.95
2022-09-24T15:50:01.046Z,101869.45
2022-09-24T15:53:25.131Z,101869.36
2022-09-24T15:56:51.918Z,101870.61
2022-09-24T16:00:18.381Z,101870.92
2022-09-24T16:03:02.772Z,101877.71
2022-09-24T16:06:20.140Z,101880.12
2022-09-24T16:09:10.032Z,101876.95
2022-09-24T16:12:02.567Z,101881.80
2022-09-24T16:15:30.128Z,101880.88
2022-09-24T16:18:47.012Z,101884.71
2022-09-24T16:22:04.607Z,101886.80
2022-09-24T16:25:35.526Z,101889.06
2022-09-24T16:28:52.553Z,101891.48
2022-09-24T16:31:52.316Z,101889.23
2022-09-24T16:35:21.068Z,101888.37
2022-09-24T16:38:48.427Z,101885.91
2022-09-24T16:42:00.829Z,101889.52
2022-09-24T16:45:27.849Z,101891.89
2022-09-24T16:49:07.186Z,101893.38
2022-09-24T16:52:26.504Z,101895.27
2022-09-24T16:55:26.416Z,101893.04
2022-09-24T16:58:47.177Z,101893.56
2022-09-24T17:05:04.524Z,101896.09
2022-09-24T17:11:13.940Z,101892.67
2022-09-24T17:21:08.121Z,101885.30
2022-09-24T17:24:36.295Z,101880.62
2022-09-24T17:28:02.835Z,101884.90
2022-09-24T17:31:29.915Z,101879.70
2022-09-24T17:34:44.926Z,101881.33
2022-09-24T17:38:12.767Z,101882.20
2022-09-24T17:41:42.826Z,101882.73
2022-09-24T17:44:59.605Z,101882.09
2022-09-24T17:48:18.903Z,101884.23
2022-09-24T17:51:39.336Z,101878.25
2022-09-24T17:54:59.873Z,101882.41
2022-09-24T17:58:18.655Z,101874.35
2022-09-24T18:01:27.005Z,101873.02
2022-09-24T18:04:37.706Z,101874.11
2022-09-24T18:08:04.474Z,101869.85
2022-09-24T18:10:35.116Z,101867.58
2022-09-24T18:33:20.879Z,101858.45
2022-09-24T18:36:48.856Z,101858.50
2022-09-24T18:40:18.056Z,101848.02
2022-09-24T18:43:29.495Z,101845.65
2022-09-24T18:46:36.288Z,101848.43
2022-09-24T18:49:52.765Z,101845.51
2022-09-24T18:52:55.898Z,101842.55
2022-09-24T18:56:04.143Z,101837.66
2022-09-24T18:59:29.567Z,101836.30
2022-09-24T19:15:03.765Z,101811.23
2022-09-24T19:18:32.916Z,101802.77
2022-09-24T19:21:50.440Z,101806.55
2022-09-24T19:25:07.586Z,101798.29
2022-09-24T19:28:34.650Z,101795.48
2022-09-24T19:32:01.371Z,101788.92
2022-09-24T19:35:27.241Z,101790.75
2022-09-24T19:38:47.686Z,101786.30
2022-09-24T19:41:52.758Z,101787.84
2022-09-24T19:45:20.478Z,101782.11
2022-09-24T19:48:39.870Z,101782.79
2022-09-24T19:51:42.290Z,101775.80
2022-09-24T19:55:10.017Z,101776.67
2022-09-24T19:58:29.269Z,101768.13
2022-09-24T20:01:53.927Z,101765.23
2022-09-24T20:05:20.998Z,101762.27
2022-09-24T20:08:50.663Z,101760.29
2022-09-24T20:33:32.499Z,101725.71
2022-09-24T20:37:01.031Z,101723.13
2022-09-24T20:40:28.428Z,101722.27
2022-09-24T20:43:40.587Z,101719.30
2022-09-24T20:46:59.477Z,101714.36
2022-09-24T20:50:25.799Z,101712.64
2022-09-24T20:53:51.846Z,101706.06
2022-09-24T20:57:01.859Z,101706.14
2022-09-24T21:00:19.101Z,101702.05
2022-09-24T21:03:45.576Z,101700.92
2022-09-24T21:07:08.502Z,101698.45
2022-09-24T21:10:15.364Z,101698.40
2022-09-24T21:13:35.264Z,101691.93
2022-09-24T21:17:03.259Z,101688.17
2022-09-24T21:20:31.625Z,101680.56
2022-09-24T21:23:51.392Z,101675.86
2022-09-24T21:27:21.137Z,101668.91
2022-09-24T21:30:49.803Z,101664.47
2022-09-24T21:34:16.984Z,101658.36
2022-09-24T21:37:40.791Z,101655.94
2022-09-24T21:40:40.208Z,101648.33
2022-09-24T21:44:08.292Z,101645.31
2022-09-24T21:47:36.114Z,101640.04
2022-09-24T21:50:55.116Z,101638.63
2022-09-24T21:54:12.182Z,101637.88
2022-09-24T21:57:32.678Z,101631.98
2022-09-24T22:00:32.761Z,101629.91
2022-09-24T22:03:39.652Z,101627.75
2022-09-24T22:06:57.037Z,101626.81
2022-09-24T22:10:23.873Z,101624.30
2022-09-24T22:13:50.267Z,101620.62
2022-09-24T22:16:57.458Z,101621.54
2022-09-24T22:20:18.643Z,101614.41
2022-09-24T22:23:28.961Z,101610.86
2022-09-24T22:26:31.445Z,101607.53
2022-09-24T22:29:52.093Z,101604.57
2022-09-24T22:33:08.679Z,101598.83
2022-09-24T22:36:25.797Z,101596.88
2022-09-24T22:39:44.108Z,101593.56
2022-09-24T22:42:34.397Z,101587.05
2022-09-24T22:45:32.597Z,101585.61
2022-09-24T22:48:56.736Z,101582.34
2022-09-24T22:52:12.003Z,101578.96
2022-09-24T22:55:29.672Z,101571.30
2022-09-24T22:58:41.373Z,101567.52
2022-09-24T23:01:47.625Z,101564.59
2022-09-24T23:05:14.321Z,101563.16
2022-09-24T23:08:33.296Z,101562.08
2022-09-24T23:11:49.884Z,101559.15
2022-09-24T23:15:07.664Z,101552.45
2022-09-24T23:18:27.166Z,101547.27
2022-09-24T23:21:48.638Z,101548.20
2022-09-24T23:25:17.229Z,101543.77
2022-09-24T23:28:44.652Z,101540.88
2022-09-24T23:31:33.867Z,101536.97
2022-09-24T23:34:44.607Z,101528.88
2022-09-24T23:37:48.142Z,101526.64
2022-09-24T23:40:33.037Z,101519.87
2022-09-24T23:43:50.674Z,101519.59
2022-09-24T23:47:01.129Z,101518.59
2022-09-24T23:50:18.507Z,101516.17
2022-09-24T23:53:45.358Z,101518.87
2022-09-24T23:57:12.212Z,101519.14
